Cushing, Utah
Current Conditions -  °F | °C
As of 2:53 AM on Sunday 26 Oct 2014 (Local Time) from KSLC Reporting Station
Scattered Clouds Scattered Clouds  
Wind Chill: 64°   Ceiling: Unl
Heat Index: 64°   Visibility: 10mi
Dew Point: 41°   Wind: 9mph
Humidity: 43%   Direction: 200°SSW
Pressure: 29.92"   Gusts: 21mph
Location:  40.615°N, 111.891°W
Report Text: KSLC 260853Z 20008G18KT 10SM FEW080 SCT110 18/05 A2992 RMK AO2 SLP082 T01780050 53001
Loading
Personal Weather Stations






























Interactive Weather Map
Tropical Storm Tracking
New forecast layout! Learn more

10-Day Weather Forecast

Advertisements
Track Severe Weather on mobile